createdAt,value
2022-08-11T00:01:14.100Z,69.90
2022-08-11T00:03:48.805Z,69.90
2022-08-11T00:06:27.026Z,70.00
2022-08-11T00:08:56.629Z,70.20
2022-08-11T00:11:35.084Z,70.30
2022-08-11T00:14:05.099Z,70.40
2022-08-11T00:16:34.144Z,70.40
2022-08-11T00:19:04.694Z,70.50
2022-08-11T00:22:04.947Z,70.60
2022-08-11T00:24:53.990Z,70.70
2022-08-11T00:27:34.025Z,70.70
2022-08-11T00:30:02.999Z,70.90
2022-08-11T00:32:32.034Z,70.90
2022-08-11T00:35:52.416Z,71.00
2022-08-11T00:37:56.841Z,71.00
2022-08-11T00:40:29.519Z,71.00
2022-08-11T00:43:10.580Z,71.00
2022-08-11T00:46:06.686Z,71.10
2022-08-11T00:48:46.519Z,71.10
2022-08-11T00:51:27.064Z,71.20
2022-08-11T00:54:41.958Z,71.20
2022-08-11T00:57:38.453Z,71.20
2022-08-11T01:00:16.164Z,71.10
2022-08-11T01:03:19.913Z,71.20
2022-08-11T01:06:10.113Z,71.30
2022-08-11T01:09:23.693Z,71.30
2022-08-11T01:12:22.871Z,71.30
2022-08-11T01:15:33.377Z,71.40
2022-08-11T01:18:57.472Z,71.40
2022-08-11T01:22:06.280Z,71.40
2022-08-11T01:25:29.307Z,71.40
2022-08-11T01:28:34.130Z,71.40
2022-08-11T01:31:38.492Z,71.50
2022-08-11T01:34:49.529Z,71.60
2022-08-11T01:38:10.197Z,71.70
2022-08-11T01:41:18.546Z,71.70
2022-08-11T01:44:36.724Z,71.80
2022-08-11T01:47:38.962Z,71.70
2022-08-11T01:50:37.149Z,71.80
2022-08-11T01:53:19.788Z,71.70
2022-08-11T01:55:58.602Z,71.80
2022-08-11T01:58:43.517Z,71.90
2022-08-11T02:01:29.618Z,71.90
2022-08-11T02:04:08.375Z,72.00
2022-08-11T02:06:58.745Z,72.00
2022-08-11T02:09:56.598Z,71.90
2022-08-11T02:12:42.695Z,72.10
2022-08-11T02:15:30.215Z,72.00
2022-08-11T02:18:09.629Z,71.90
2022-08-11T02:21:04.250Z,71.90
2022-08-11T02:24:07.129Z,71.90
2022-08-11T02:26:41.673Z,72.00
2022-08-11T02:29:20.100Z,72.00
2022-08-11T02:32:29.807Z,72.20
2022-08-11T02:35:09.936Z,72.20
2022-08-11T02:37:50.286Z,72.40
2022-08-11T02:40:31.775Z,72.50
2022-08-11T02:43:11.514Z,72.70
2022-08-11T02:45:56.814Z,72.80
2022-08-11T02:49:10.716Z,72.80
2022-08-11T02:51:46.987Z,72.90
2022-08-11T02:54:22.772Z,72.90
2022-08-11T02:56:59.006Z,72.80
2022-08-11T02:59:52.126Z,72.80
2022-08-11T03:02:48.698Z,73.00
2022-08-11T03:05:25.669Z,73.00
2022-08-11T03:08:12.470Z,73.30
2022-08-11T03:11:11.687Z,73.60
2022-08-11T03:14:02.555Z,73.80
2022-08-11T03:16:48.933Z,73.70
2022-08-11T03:19:27.560Z,73.90
2022-08-11T03:22:06.831Z,73.90
2022-08-11T03:24:50.922Z,73.90
2022-08-11T03:27:34.639Z,73.80
2022-08-11T03:30:13.064Z,73.80
2022-08-11T03:33:26.887Z,73.90
2022-08-11T03:36:09.347Z,73.90
2022-08-11T03:38:56.813Z,73.70
2022-08-11T03:42:03.494Z,73.70
2022-08-11T03:44:57.252Z,73.70
2022-08-11T03:47:55.227Z,74.10
2022-08-11T03:50:57.258Z,74.40
2022-08-11T03:53:43.026Z,74.90
2022-08-11T03:56:40.307Z,74.80
2022-08-11T03:59:48.188Z,75.00
2022-08-11T04:02:44.456Z,75.00
2022-08-11T04:06:07.396Z,75.00
2022-08-11T04:09:07.235Z,74.90
2022-08-11T04:12:34.667Z,74.80
2022-08-11T04:16:12.086Z,74.70
2022-08-11T04:19:13.890Z,74.30
2022-08-11T04:22:08.655Z,73.10
2022-08-11T04:25:07.167Z,73.10
2022-08-11T04:28:28.668Z,73.30
2022-08-11T04:31:11.353Z,73.70
2022-08-11T04:34:01.171Z,73.60
2022-08-11T04:37:02.173Z,74.30
2022-08-11T04:39:50.839Z,74.60
2022-08-11T04:43:14.552Z,74.80
2022-08-11T04:46:07.918Z,74.80
2022-08-11T04:49:25.526Z,74.80
2022-08-11T04:52:36.062Z,75.10
2022-08-11T04:55:50.524Z,75.40
2022-08-11T04:58:44.302Z,75.90
2022-08-11T05:01:43.795Z,75.60
2022-08-11T05:04:58.752Z,75.80
2022-08-11T05:08:15.503Z,75.40
2022-08-11T05:11:19.259Z,75.70
2022-08-11T05:14:06.898Z,76.20
2022-08-11T05:17:01.834Z,76.50
2022-08-11T05:19:48.046Z,77.10
2022-08-11T05:22:38.130Z,77.20
2022-08-11T05:26:09.341Z,77.30
2022-08-11T05:28:38.373Z,76.90
2022-08-11T05:31:28.986Z,77.00
2022-08-11T05:34:19.851Z,77.20
2022-08-11T05:36:51.948Z,76.40
2022-08-11T05:39:43.071Z,75.80
2022-08-11T05:42:30.749Z,75.60
2022-08-11T05:45:23.356Z,75.50
2022-08-11T05:48:09.915Z,75.00
2022-08-11T05:50:56.410Z,74.70
2022-08-11T05:53:46.363Z,74.60
2022-08-11T05:56:18.547Z,74.80
2022-08-11T05:58:50.633Z,74.50
2022-08-11T06:01:26.479Z,74.50
2022-08-11T06:04:15.885Z,74.50
2022-08-11T06:06:54.427Z,74.50
2022-08-11T06:09:26.541Z,73.90
2022-08-11T06:11:57.762Z,73.70
2022-08-11T06:14:27.425Z,73.80
2022-08-11T06:17:00.495Z,73.80
2022-08-11T06:19:37.529Z,73.70
2022-08-11T06:22:07.844Z,73.70
2022-08-11T06:24:37.720Z,73.70
2022-08-11T06:27:15.061Z,73.90
2022-08-11T06:29:54.500Z,73.70
2022-08-11T06:32:28.870Z,74.50
2022-08-11T06:35:06.267Z,75.30
2022-08-11T06:37:46.882Z,75.90
2022-08-11T06:40:32.366Z,76.40
2022-08-11T06:43:08.218Z,76.70
2022-08-11T06:45:48.795Z,76.90
2022-08-11T06:48:21.314Z,77.20
2022-08-11T06:51:08.751Z,77.20
2022-08-11T06:53:39.584Z,77.40
2022-08-11T06:56:30.846Z,77.30
2022-08-11T06:59:18.903Z,77.30
2022-08-11T07:01:59.214Z,77.60
2022-08-11T07:04:33.803Z,77.30
2022-08-11T07:07:55.206Z,77.40
2022-08-11T07:11:04.307Z,77.20
2022-08-11T07:13:54.223Z,77.20
2022-08-11T07:16:28.484Z,77.20
2022-08-11T07:19:20.377Z,77.50
2022-08-11T07:22:09.098Z,77.80
2022-08-11T07:25:02.461Z,78.10
2022-08-11T07:27:55.881Z,78.20
2022-08-11T07:30:27.562Z,78.60
2022-08-11T07:32:59.491Z,78.70
2022-08-11T07:35:33.757Z,78.70
2022-08-11T07:38:07.982Z,78.70
2022-08-11T07:40:37.607Z,78.60
2022-08-11T07:43:08.234Z,78.80
2022-08-11T07:45:54.733Z,78.70
2022-08-11T07:48:40.733Z,78.90
2022-08-11T07:51:27.012Z,78.70
2022-08-11T07:53:58.363Z,78.50
2022-08-11T07:56:54.366Z,78.10
2022-08-11T08:00:03.702Z,78.00
2022-08-11T08:02:50.506Z,78.10
2022-08-11T08:05:37.606Z,77.80
2022-08-11T08:08:25.280Z,77.70
2022-08-11T08:11:14.380Z,77.40
2022-08-11T08:14:00.894Z,77.30
2022-08-11T08:16:49.498Z,77.50
2022-08-11T08:19:20.930Z,77.80
2022-08-11T08:21:50.471Z,78.00
2022-08-11T08:24:21.456Z,77.90
2022-08-11T08:27:00.883Z,78.00
2022-08-11T08:29:51.284Z,78.20
2022-08-11T08:32:21.982Z,78.20
2022-08-11T08:34:52.451Z,78.30
2022-08-11T08:37:45.733Z,78.30
2022-08-11T08:40:15.264Z,78.20
2022-08-11T08:42:52.037Z,77.70
2022-08-11T08:45:21.555Z,77.40
2022-08-11T08:47:56.343Z,76.70
2022-08-11T08:50:47.970Z,74.60
2022-08-11T08:53:19.097Z,74.30
2022-08-11T08:55:48.484Z,74.00
2022-08-11T08:58:21.947Z,73.00
2022-08-11T09:00:54.918Z,73.10
2022-08-11T09:04:05.355Z,73.00
2022-08-11T09:06:16.938Z,72.50
2022-08-11T09:08:46.620Z,72.40
2022-08-11T09:11:41.583Z,72.10
2022-08-11T09:14:15.080Z,71.80
2022-08-11T09:16:45.044Z,71.20
2022-08-11T09:19:17.734Z,70.60
2022-08-11T09:22:11.576Z,70.20
2022-08-11T09:24:58.900Z,69.70
2022-08-11T09:27:27.848Z,70.20
2022-08-11T09:29:58.181Z,69.40
2022-08-11T09:32:29.466Z,68.80
2022-08-11T09:34:58.654Z,68.80
2022-08-11T09:37:55.621Z,68.90
2022-08-11T09:40:33.691Z,69.10
2022-08-11T09:43:23.782Z,69.00
2022-08-11T09:45:55.113Z,68.60
2022-08-11T09:48:26.489Z,68.60
2022-08-11T09:50:57.054Z,68.90
2022-08-11T09:53:36.492Z,68.60
2022-08-11T09:56:30.830Z,68.20
2022-08-11T09:59:00.479Z,68.50
2022-08-11T10:01:35.085Z,68.80
2022-08-11T10:04:10.370Z,68.60
2022-08-11T10:07:00.028Z,69.10
2022-08-11T10:09:29.991Z,69.30
2022-08-11T10:12:00.882Z,69.40
2022-08-11T10:14:48.508Z,69.30
2022-08-11T10:17:21.342Z,68.60
2022-08-11T10:20:05.245Z,69.20
2022-08-11T10:22:54.217Z,69.60
2022-08-11T10:25:40.732Z,69.60
2022-08-11T10:28:32.639Z,69.00
2022-08-11T10:31:19.206Z,69.00
2022-08-11T10:34:01.822Z,69.50
2022-08-11T10:36:32.756Z,68.60
2022-08-11T10:39:03.799Z,68.80
2022-08-11T10:42:02.082Z,69.70
2022-08-11T10:44:40.092Z,69.00
2022-08-11T10:47:26.726Z,68.30
2022-08-11T10:50:16.227Z,67.50
2022-08-11T10:53:05.852Z,67.00
2022-08-11T10:55:52.502Z,67.50
2022-08-11T10:58:39.785Z,67.60
2022-08-11T11:01:09.745Z,67.60
2022-08-11T11:03:39.666Z,67.20
2022-08-11T11:06:29.517Z,66.70
2022-08-11T11:09:04.738Z,67.30
2022-08-11T11:11:56.333Z,67.70
2022-08-11T11:14:49.788Z,67.50
2022-08-11T11:17:43.668Z,67.30
2022-08-11T11:20:36.612Z,66.50
2022-08-11T11:23:11.534Z,66.40
2022-08-11T11:26:29.566Z,66.30
2022-08-11T11:29:25.423Z,66.40
2022-08-11T11:32:17.932Z,65.70
2022-08-11T11:35:18.382Z,66.20
2022-08-11T11:38:03.858Z,66.00
2022-08-11T11:40:37.291Z,65.60
2022-08-11T11:43:06.588Z,65.40
2022-08-11T11:45:35.375Z,65.50
2022-08-11T11:48:04.220Z,65.40
2022-08-11T11:50:35.801Z,64.50
2022-08-11T11:53:07.400Z,64.10
2022-08-11T11:55:38.387Z,64.10
2022-08-11T11:58:25.127Z,64.30
2022-08-11T12:01:13.588Z,64.60
2022-08-11T12:03:43.229Z,64.60
2022-08-11T12:06:14.307Z,64.20
2022-08-11T12:08:44.950Z,64.50
2022-08-11T12:11:32.561Z,64.90
2022-08-11T12:14:10.587Z,64.70
2022-08-11T12:16:41.882Z,64.30
2022-08-11T12:19:13.971Z,65.00
2022-08-11T12:22:04.257Z,65.60
2022-08-11T12:25:03.243Z,64.90
2022-08-11T12:27:33.550Z,64.50
2022-08-11T12:30:09.721Z,64.20
2022-08-11T12:32:40.934Z,63.80
2022-08-11T12:35:11.442Z,63.60
2022-08-11T12:37:43.831Z,63.60
2022-08-11T12:40:49.837Z,63.20
2022-08-11T12:43:41.849Z,63.20
2022-08-11T12:46:15.686Z,63.40
2022-08-11T12:49:04.988Z,63.70
2022-08-11T12:52:11.307Z,63.40
2022-08-11T12:54:52.843Z,64.20
2022-08-11T12:57:45.022Z,62.90
2022-08-11T13:00:34.450Z,63.40
2022-08-11T13:03:22.196Z,62.90
2022-08-11T13:05:53.701Z,62.80
2022-08-11T13:08:25.192Z,62.30
2022-08-11T13:11:14.506Z,63.20
2022-08-11T13:13:54.579Z,62.30
2022-08-11T13:16:30.366Z,62.20
2022-08-11T13:19:01.528Z,62.90
2022-08-11T13:21:31.195Z,63.10
2022-08-11T13:24:03.174Z,62.80
2022-08-11T13:26:47.790Z,62.20
2022-08-11T13:29:24.658Z,62.60
2022-08-11T13:31:57.131Z,61.50
2022-08-11T13:34:27.943Z,61.50
2022-08-11T13:36:59.459Z,61.70
2022-08-11T13:39:30.031Z,61.70
2022-08-11T13:42:16.967Z,61.30
2022-08-11T13:44:45.906Z,61.50
2022-08-11T13:47:17.219Z,61.80
2022-08-11T13:49:48.088Z,61.40
2022-08-11T13:52:17.723Z,61.50
2022-08-11T13:58:06.331Z,61.40
2022-08-11T14:00:28.228Z,61.30
2022-08-11T14:02:59.609Z,60.40
2022-08-11T14:05:30.661Z,60.50
2022-08-11T14:08:03.314Z,60.70
2022-08-11T14:10:35.130Z,61.30
2022-08-11T14:13:27.162Z,61.00
2022-08-11T14:16:02.546Z,61.00
2022-08-11T14:18:34.747Z,61.70
2022-08-11T14:21:22.000Z,60.10
2022-08-11T14:23:55.321Z,60.50
2022-08-11T14:26:27.000Z,60.60
2022-08-11T14:28:59.776Z,60.90
2022-08-11T14:31:30.381Z,61.50
2022-08-11T14:34:03.960Z,60.90
2022-08-11T14:36:35.642Z,60.50
2022-08-11T14:39:08.050Z,60.80
2022-08-11T14:42:10.575Z,60.70
2022-08-11T14:45:16.639Z,60.40
2022-08-11T14:47:48.809Z,60.50
2022-08-11T14:50:23.285Z,60.60
2022-08-11T14:52:55.251Z,60.80
2022-08-11T14:55:43.739Z,61.10
2022-08-11T14:58:16.171Z,61.00
2022-08-11T15:00:45.450Z,60.80
2022-08-11T15:03:15.524Z,60.60
2022-08-11T15:05:56.177Z,60.70
2022-08-11T15:08:42.414Z,60.40
2022-08-11T15:11:26.676Z,60.30
2022-08-11T15:13:55.707Z,60.00
2022-08-11T15:16:42.929Z,59.90
2022-08-11T15:19:13.314Z,60.10
2022-08-11T15:22:00.959Z,60.30
2022-08-11T15:24:30.874Z,60.30
2022-08-11T15:27:19.907Z,60.30
2022-08-11T15:30:07.590Z,60.10
2022-08-11T15:32:54.853Z,59.70
2022-08-11T15:35:41.997Z,59.30
2022-08-11T15:38:14.011Z,59.20
2022-08-11T15:41:01.789Z,59.10
2022-08-11T15:43:51.617Z,59.30
2022-08-11T15:46:36.715Z,59.50
2022-08-11T15:49:12.816Z,59.60
2022-08-11T15:51:45.209Z,59.50
2022-08-11T15:54:18.359Z,59.30
2022-08-11T15:56:50.275Z,59.10
2022-08-11T15:59:41.535Z,59.00
2022-08-11T16:02:33.388Z,59.00
2022-08-11T16:05:07.304Z,58.90
2022-08-11T16:07:40.956Z,59.00
2022-08-11T16:10:18.994Z,59.00
2022-08-11T16:13:05.902Z,59.00
2022-08-11T16:15:53.136Z,58.80
2022-08-11T16:18:40.664Z,58.80
2022-08-11T16:21:26.131Z,58.80
2022-08-11T16:24:03.212Z,58.80
2022-08-11T16:27:10.439Z,58.70
2022-08-11T16:29:25.190Z,58.70
2022-08-11T16:32:14.451Z,58.60
2022-08-11T16:35:03.021Z,58.40
2022-08-11T16:37:51.738Z,58.40
2022-08-11T16:40:22.772Z,58.30
2022-08-11T16:43:12.153Z,58.30
2022-08-11T16:46:00.250Z,58.40
2022-08-11T16:48:37.168Z,58.50
2022-08-11T16:51:07.502Z,58.50
2022-08-11T16:53:46.094Z,58.50
2022-08-11T16:56:35.469Z,58.20
2022-08-11T16:59:16.917Z,58.30
2022-08-11T17:01:50.273Z,58.00
2022-08-11T17:04:49.904Z,57.60
2022-08-11T17:07:42.055Z,57.30
2022-08-11T17:10:52.770Z,57.40
2022-08-11T17:13:33.406Z,57.50
2022-08-11T17:16:08.570Z,57.70
2022-08-11T17:18:47.050Z,57.50
2022-08-11T17:21:22.174Z,57.60
2022-08-11T17:23:55.267Z,58.00
2022-08-11T17:26:28.090Z,57.80
2022-08-11T17:29:00.925Z,57.90
2022-08-11T17:31:48.925Z,57.80
2022-08-11T17:34:34.889Z,57.80
2022-08-11T17:37:04.525Z,57.80
2022-08-11T17:39:35.877Z,57.90
2022-08-11T17:42:22.204Z,58.10
2022-08-11T17:45:09.237Z,58.30
2022-08-11T17:47:58.810Z,58.30
2022-08-11T17:50:28.053Z,58.30
2022-08-11T17:53:15.813Z,58.50
2022-08-11T17:56:02.113Z,58.80
2022-08-11T17:58:48.647Z,58.80
2022-08-11T18:01:20.090Z,58.60
2022-08-11T18:03:57.897Z,58.70
2022-08-11T18:06:32.631Z,58.80
2022-08-11T18:09:23.740Z,59.00
2022-08-11T18:12:13.019Z,59.00
2022-08-11T18:15:02.868Z,59.30
2022-08-11T18:17:49.154Z,59.10
2022-08-11T18:20:36.952Z,59.20
2022-08-11T18:23:40.737Z,59.20
2022-08-11T18:26:36.454Z,59.20
2022-08-11T18:29:25.307Z,59.20
2022-08-11T18:32:20.835Z,59.20
2022-08-11T18:35:11.442Z,59.20
2022-08-11T18:38:04.840Z,59.40
2022-08-11T18:40:51.725Z,59.60
2022-08-11T18:43:43.600Z,59.70
2022-08-11T18:46:31.947Z,60.00
2022-08-11T18:49:22.061Z,60.50
2022-08-11T18:52:11.132Z,60.70
2022-08-11T18:55:02.245Z,60.70
2022-08-11T18:57:53.776Z,60.80
2022-08-11T19:00:41.953Z,61.00
2022-08-11T19:03:31.281Z,61.40
2022-08-11T19:06:38.754Z,61.30
2022-08-11T19:09:29.051Z,61.40
2022-08-11T19:12:17.974Z,61.50
2022-08-11T19:15:06.413Z,61.60
2022-08-11T19:17:54.580Z,61.70
2022-08-11T19:20:43.333Z,61.90
2022-08-11T19:23:31.859Z,61.90
2022-08-11T19:26:19.267Z,61.90
2022-08-11T19:29:09.605Z,61.90
2022-08-11T19:32:16.721Z,62.10
2022-08-11T19:35:04.040Z,62.30
2022-08-11T19:37:51.362Z,62.30
2022-08-11T19:40:38.188Z,62.30
2022-08-11T19:43:26.413Z,62.20
2022-08-11T19:46:17.192Z,62.30
2022-08-11T19:49:05.469Z,62.30
2022-08-11T19:51:54.712Z,62.20
2022-08-11T19:54:43.340Z,62.30
2022-08-11T19:57:31.068Z,62.40
2022-08-11T20:00:19.972Z,62.50
2022-08-11T20:03:09.366Z,62.50
2022-08-11T20:05:59.588Z,62.40
2022-08-11T20:08:47.909Z,62.40
2022-08-11T20:11:36.014Z,62.50
2022-08-11T20:14:23.836Z,62.50
2022-08-11T20:17:11.823Z,62.60
2022-08-11T20:22:52.888Z,62.70
2022-08-11T20:25:43.016Z,62.70
2022-08-11T20:28:31.455Z,62.60
2022-08-11T20:31:17.029Z,62.60
2022-08-11T20:34:03.832Z,63.40
2022-08-11T20:36:55.071Z,62.60
2022-08-11T20:39:43.140Z,62.30
2022-08-11T20:42:30.697Z,62.40
2022-08-11T20:45:23.475Z,62.40
2022-08-11T20:48:14.756Z,62.20
2022-08-11T20:51:06.258Z,62.20
2022-08-11T20:53:56.054Z,62.20
2022-08-11T20:56:43.173Z,62.30
2022-08-11T20:59:33.318Z,62.20
2022-08-11T21:02:27.006Z,62.10
2022-08-11T21:05:15.785Z,62.10
2022-08-11T21:08:08.323Z,62.00
2022-08-11T21:10:58.184Z,61.90
2022-08-11T21:13:51.410Z,61.80
2022-08-11T21:16:47.399Z,61.70
2022-08-11T21:20:01.511Z,61.60
2022-08-11T21:22:59.180Z,61.20
2022-08-11T21:25:59.101Z,61.00
2022-08-11T21:28:47.170Z,61.00
2022-08-11T21:31:34.630Z,60.80
2022-08-11T21:34:22.022Z,60.50
2022-08-11T21:37:09.285Z,60.30
2022-08-11T21:39:56.143Z,60.20
2022-08-11T21:42:46.000Z,60.00
2022-08-11T21:45:33.353Z,59.80
2022-08-11T21:48:20.599Z,59.60
2022-08-11T21:51:06.169Z,59.50
2022-08-11T21:53:52.843Z,59.50
2022-08-11T21:56:40.540Z,59.30
2022-08-11T21:59:29.605Z,59.20
2022-08-11T22:02:16.737Z,59.10
2022-08-11T22:05:04.552Z,59.00
2022-08-11T22:07:50.734Z,58.90
2022-08-11T22:10:42.081Z,58.70
2022-08-11T22:13:30.684Z,59.90
2022-08-11T22:16:18.256Z,59.60
2022-08-11T22:19:06.557Z,59.10
2022-08-11T22:22:01.810Z,58.80
2022-08-11T22:24:51.322Z,58.60
2022-08-11T22:27:37.548Z,58.50
2022-08-11T22:30:26.088Z,58.60
2022-08-11T22:33:15.077Z,58.50
2022-08-11T22:36:02.263Z,58.20
2022-08-11T22:38:50.087Z,58.10
2022-08-11T22:41:35.976Z,58.10
2022-08-11T22:44:22.419Z,58.10
2022-08-11T22:47:12.696Z,58.10
2022-08-11T22:50:01.820Z,58.20
2022-08-11T22:52:48.022Z,58.10
2022-08-11T22:55:34.853Z,57.80
2022-08-11T22:58:22.188Z,57.70
2022-08-11T23:01:08.475Z,57.60
2022-08-11T23:03:54.862Z,57.50
2022-08-11T23:06:43.246Z,57.20
2022-08-11T23:09:30.551Z,57.10
2022-08-11T23:12:17.256Z,57.80
2022-08-11T23:15:05.480Z,57.10
2022-08-11T23:17:51.507Z,57.10
2022-08-11T23:20:50.041Z,57.20
2022-08-11T23:23:42.948Z,57.30
2022-08-11T23:26:30.237Z,57.20
2022-08-11T23:29:17.120Z,57.10
2022-08-11T23:32:06.163Z,57.10
2022-08-11T23:35:04.497Z,57.20
2022-08-11T23:38:00.940Z,57.20
2022-08-11T23:40:48.485Z,57.30
2022-08-11T23:43:38.606Z,57.20
2022-08-11T23:46:24.880Z,57.20
2022-08-11T23:49:14.681Z,57.10
2022-08-11T23:52:01.298Z,57.10
2022-08-11T23:54:47.922Z,57.00
2022-08-11T23:57:35.532Z,57.10
